Millinocket, Millinocket Municipal Airport (KMLT)

NameMillinocket Municipal Airport
CityMillinocket
CountryUnited States
ICAOKMLT
IATAMLT
Altitude124 m
CoordinatesGoogle Map
Live Air TrafficLiveATC.net
METARKMLT 180053Z AUTO 00000KT 10SM CLR M19/M23 A3035 RMK AO2 SLP294 T11941233
2019-01-18 00:53:00 Wind: North (0°) 0 m/s - Visibility: 16093.4 m - Temperature: -19 °C - Dew point: -23 °C - Humidity: 70.9% - Pressure: 1027.77 hPa
Statistics

The table below shows the detailed information of all flights to/from Millinocket, Millinocket Municipal Airport (KMLT).